sensor_id;sensor_type;location;lat;lon;timestamp;P1;durP1;ratioP1;P2;durP2;ratioP2
32872;SDS011;19224;52.462;16.898;2022-11-23T00:00:02;67.25;;;33.08;;
32872;SDS011;19224;52.462;16.898;2022-11-23T00:02:35;62.15;;;31.68;;
32872;SDS011;19224;52.462;16.898;2022-11-23T00:05:05;65.87;;;31.20;;
32872;SDS011;19224;52.462;16.898;2022-11-23T00:07:36;63.85;;;30.82;;
32872;SDS011;19224;52.462;16.898;2022-11-23T00:10:07;65.72;;;32.15;;
32872;SDS011;19224;52.462;16.898;2022-11-23T00:12:38;67.65;;;30.80;;
32872;SDS011;19224;52.462;16.898;2022-11-23T00:15:09;68.65;;;30.90;;
32872;SDS011;19224;52.462;16.898;2022-11-23T00:17:42;65.03;;;30.88;;
32872;SDS011;19224;52.462;16.898;2022-11-23T00:20:15;65.12;;;30.92;;
32872;SDS011;19224;52.462;16.898;2022-11-23T00:22:46;65.97;;;32.35;;
32872;SDS011;19224;52.462;16.898;2022-11-23T00:25:16;63.60;;;32.55;;
32872;SDS011;19224;52.462;16.898;2022-11-23T00:27:46;65.22;;;31.35;;
32872;SDS011;19224;52.462;16.898;2022-11-23T00:30:17;65.12;;;31.93;;
32872;SDS011;19224;52.462;16.898;2022-11-23T00:32:47;66.12;;;31.75;;
32872;SDS011;19224;52.462;16.898;2022-11-23T00:35:18;60.88;;;31.52;;
32872;SDS011;19224;52.462;16.898;2022-11-23T00:37:48;64.92;;;31.30;;
32872;SDS011;19224;52.462;16.898;2022-11-23T00:40:19;65.87;;;31.10;;
32872;SDS011;19224;52.462;16.898;2022-11-23T00:42:49;71.72;;;32.13;;
32872;SDS011;19224;52.462;16.898;2022-11-23T00:45:19;63.40;;;31.12;;
32872;SDS011;19224;52.462;16.898;2022-11-23T00:47:49;63.60;;;32.23;;
32872;SDS011;19224;52.462;16.898;2022-11-23T00:50:19;75.83;;;33.00;;
32872;SDS011;19224;52.462;16.898;2022-11-23T00:52:50;66.62;;;32.10;;
32872;SDS011;19224;52.462;16.898;2022-11-23T00:55:20;67.42;;;32.98;;
32872;SDS011;19224;52.462;16.898;2022-11-23T00:57:50;66.35;;;31.35;;
32872;SDS011;19224;52.462;16.898;2022-11-23T01:00:21;71.87;;;32.60;;
32872;SDS011;19224;52.462;16.898;2022-11-23T01:02:51;66.05;;;31.52;;
32872;SDS011;19224;52.462;16.898;2022-11-23T01:05:22;76.53;;;32.90;;
32872;SDS011;19224;52.462;16.898;2022-11-23T01:07:52;68.83;;;32.13;;
32872;SDS011;19224;52.462;16.898;2022-11-23T01:10:22;66.37;;;31.73;;
32872;SDS011;19224;52.462;16.898;2022-11-23T01:12:53;63.28;;;31.95;;
32872;SDS011;19224;52.462;16.898;2022-11-23T01:15:23;66.87;;;31.23;;
32872;SDS011;19224;52.462;16.898;2022-11-23T01:17:54;73.15;;;33.25;;
32872;SDS011;19224;52.462;16.898;2022-11-23T01:20:24;70.75;;;32.53;;
32872;SDS011;19224;52.462;16.898;2022-11-23T01:22:55;62.85;;;31.57;;
32872;SDS011;19224;52.462;16.898;2022-11-23T01:25:25;66.70;;;30.40;;
32872;SDS011;19224;52.462;16.898;2022-11-23T01:27:55;64.05;;;31.75;;
32872;SDS011;19224;52.462;16.898;2022-11-23T01:30:26;68.47;;;32.33;;
32872;SDS011;19224;52.462;16.898;2022-11-23T01:32:56;71.55;;;31.95;;
32872;SDS011;19224;52.462;16.898;2022-11-23T01:35:27;68.67;;;32.10;;
32872;SDS011;19224;52.462;16.898;2022-11-23T01:37:57;71.80;;;33.92;;
32872;SDS011;19224;52.462;16.898;2022-11-23T01:40:28;73.45;;;32.53;;
32872;SDS011;19224;52.462;16.898;2022-11-23T01:43:00;65.20;;;31.42;;
32872;SDS011;19224;52.462;16.898;2022-11-23T01:45:34;69.10;;;32.38;;
32872;SDS011;19224;52.462;16.898;2022-11-23T01:48:31;72.87;;;33.50;;
32872;SDS011;19224;52.462;16.898;2022-11-23T01:51:18;71.53;;;32.53;;
32872;SDS011;19224;52.462;16.898;2022-11-23T01:53:59;66.00;;;32.40;;
32872;SDS011;19224;52.462;16.898;2022-11-23T01:56:34;71.55;;;33.65;;
32872;SDS011;19224;52.462;16.898;2022-11-23T01:59:08;70.92;;;31.75;;
32872;SDS011;19224;52.462;16.898;2022-11-23T02:01:42;68.57;;;31.15;;
32872;SDS011;19224;52.462;16.898;2022-11-23T02:04:15;73.28;;;31.82;;
32872;SDS011;19224;52.462;16.898;2022-11-23T02:06:48;64.50;;;31.87;;
32872;SDS011;19224;52.462;16.898;2022-11-23T02:09:20;69.10;;;32.20;;
32872;SDS011;19224;52.462;16.898;2022-11-23T02:11:52;69.42;;;32.78;;
32872;SDS011;19224;52.462;16.898;2022-11-23T02:14:22;66.07;;;31.90;;
32872;SDS011;19224;52.462;16.898;2022-11-23T02:16:54;68.45;;;32.55;;
32872;SDS011;19224;52.462;16.898;2022-11-23T02:22:27;71.75;;;32.35;;
32872;SDS011;19224;52.462;16.898;2022-11-23T02:28:15;73.35;;;32.88;;
32872;SDS011;19224;52.462;16.898;2022-11-23T02:30:48;69.95;;;31.40;;
32872;SDS011;19224;52.462;16.898;2022-11-23T02:33:21;71.35;;;32.73;;
32872;SDS011;19224;52.462;16.898;2022-11-23T02:35:54;64.60;;;31.55;;
32872;SDS011;19224;52.462;16.898;2022-11-23T02:38:28;68.37;;;31.42;;
32872;SDS011;19224;52.462;16.898;2022-11-23T02:41:00;61.08;;;30.57;;
32872;SDS011;19224;52.462;16.898;2022-11-23T02:43:31;67.30;;;30.90;;
32872;SDS011;19224;52.462;16.898;2022-11-23T02:46:01;74.10;;;32.95;;
32872;SDS011;19224;52.462;16.898;2022-11-23T02:48:33;74.25;;;32.88;;
32872;SDS011;19224;52.462;16.898;2022-11-23T02:51:03;65.62;;;31.52;;
32872;SDS011;19224;52.462;16.898;2022-11-23T02:53:33;62.88;;;30.68;;
32872;SDS011;19224;52.462;16.898;2022-11-23T02:56:04;76.33;;;33.40;;
32872;SDS011;19224;52.462;16.898;2022-11-23T02:58:34;68.70;;;32.35;;
32872;SDS011;19224;52.462;16.898;2022-11-23T03:01:04;66.65;;;32.00;;
32872;SDS011;19224;52.462;16.898;2022-11-23T03:03:35;69.07;;;31.82;;
32872;SDS011;19224;52.462;16.898;2022-11-23T03:06:05;71.10;;;32.95;;
32872;SDS011;19224;52.462;16.898;2022-11-23T03:08:35;71.90;;;32.45;;
32872;SDS011;19224;52.462;16.898;2022-11-23T03:11:05;70.70;;;32.28;;
32872;SDS011;19224;52.462;16.898;2022-11-23T03:13:36;63.85;;;31.90;;
32872;SDS011;19224;52.462;16.898;2022-11-23T03:16:06;65.12;;;31.40;;
32872;SDS011;19224;52.462;16.898;2022-11-23T03:18:37;68.65;;;32.38;;
32872;SDS011;19224;52.462;16.898;2022-11-23T03:21:07;71.50;;;32.93;;
32872;SDS011;19224;52.462;16.898;2022-11-23T03:23:38;67.30;;;32.45;;
32872;SDS011;19224;52.462;16.898;2022-11-23T03:26:08;70.00;;;31.40;;
32872;SDS011;19224;52.462;16.898;2022-11-23T03:28:38;64.70;;;31.17;;
32872;SDS011;19224;52.462;16.898;2022-11-23T03:31:09;64.07;;;32.15;;
32872;SDS011;19224;52.462;16.898;2022-11-23T03:33:40;70.72;;;33.23;;
32872;SDS011;19224;52.462;16.898;2022-11-23T03:36:10;67.78;;;32.95;;
32872;SDS011;19224;52.462;16.898;2022-11-23T03:38:40;74.92;;;32.90;;
32872;SDS011;19224;52.462;16.898;2022-11-23T03:41:11;67.27;;;31.52;;
32872;SDS011;19224;52.462;16.898;2022-11-23T03:43:41;64.95;;;31.15;;
32872;SDS011;19224;52.462;16.898;2022-11-23T03:46:11;69.15;;;32.30;;
32872;SDS011;19224;52.462;16.898;2022-11-23T03:48:41;69.10;;;32.48;;
32872;SDS011;19224;52.462;16.898;2022-11-23T03:51:12;66.90;;;32.83;;
32872;SDS011;19224;52.462;16.898;2022-11-23T03:53:42;71.12;;;33.08;;
32872;SDS011;19224;52.462;16.898;2022-11-23T03:56:12;68.52;;;32.10;;
32872;SDS011;19224;52.462;16.898;2022-11-23T03:58:44;69.85;;;32.98;;
32872;SDS011;19224;52.462;16.898;2022-11-23T04:01:14;70.30;;;33.18;;
32872;SDS011;19224;52.462;16.898;2022-11-23T04:03:45;66.00;;;31.73;;
32872;SDS011;19224;52.462;16.898;2022-11-23T04:06:15;70.35;;;32.73;;
32872;SDS011;19224;52.462;16.898;2022-11-23T04:08:45;73.97;;;33.70;;
32872;SDS011;19224;52.462;16.898;2022-11-23T04:11:16;71.10;;;34.00;;
32872;SDS011;19224;52.462;16.898;2022-11-23T04:13:46;74.05;;;33.15;;
32872;SDS011;19224;52.462;16.898;2022-11-23T04:16:17;72.95;;;33.88;;
32872;SDS011;19224;52.462;16.898;2022-11-23T04:18:47;68.50;;;32.05;;
32872;SDS011;19224;52.462;16.898;2022-11-23T04:21:18;70.78;;;31.97;;
32872;SDS011;19224;52.462;16.898;2022-11-23T04:23:48;66.45;;;33.02;;
32872;SDS011;19224;52.462;16.898;2022-11-23T04:26:18;74.32;;;32.98;;
32872;SDS011;19224;52.462;16.898;2022-11-23T04:28:49;73.45;;;34.08;;
32872;SDS011;19224;52.462;16.898;2022-11-23T04:31:19;71.92;;;32.95;;
32872;SDS011;19224;52.462;16.898;2022-11-23T04:33:50;69.35;;;33.65;;
32872;SDS011;19224;52.462;16.898;2022-11-23T04:36:22;76.30;;;33.83;;
32872;SDS011;19224;52.462;16.898;2022-11-23T04:38:54;81.60;;;34.92;;
32872;SDS011;19224;52.462;16.898;2022-11-23T04:41:24;71.85;;;33.58;;
32872;SDS011;19224;52.462;16.898;2022-11-23T04:43:55;74.75;;;35.10;;
32872;SDS011;19224;52.462;16.898;2022-11-23T04:46:25;74.32;;;33.25;;
32872;SDS011;19224;52.462;16.898;2022-11-23T04:48:55;65.47;;;31.40;;
32872;SDS011;19224;52.462;16.898;2022-11-23T04:51:26;70.62;;;32.70;;
32872;SDS011;19224;52.462;16.898;2022-11-23T04:53:56;72.95;;;33.33;;
32872;SDS011;19224;52.462;16.898;2022-11-23T04:56:26;73.97;;;34.18;;
32872;SDS011;19224;52.462;16.898;2022-11-23T04:58:56;75.42;;;34.67;;
32872;SDS011;19224;52.462;16.898;2022-11-23T05:01:26;73.95;;;34.38;;
32872;SDS011;19224;52.462;16.898;2022-11-23T05:03:57;71.07;;;34.15;;
32872;SDS011;19224;52.462;16.898;2022-11-23T05:06:27;77.75;;;33.20;;
32872;SDS011;19224;52.462;16.898;2022-11-23T05:08:57;76.10;;;33.92;;
32872;SDS011;19224;52.462;16.898;2022-11-23T05:11:28;76.92;;;33.55;;
32872;SDS011;19224;52.462;16.898;2022-11-23T05:13:58;76.12;;;33.75;;
32872;SDS011;19224;52.462;16.898;2022-11-23T05:16:28;72.58;;;33.70;;
32872;SDS011;19224;52.462;16.898;2022-11-23T05:18:59;73.95;;;33.30;;
32872;SDS011;19224;52.462;16.898;2022-11-23T05:21:29;76.55;;;33.60;;
32872;SDS011;19224;52.462;16.898;2022-11-23T05:23:59;74.55;;;33.83;;
32872;SDS011;19224;52.462;16.898;2022-11-23T05:26:30;83.00;;;35.00;;
32872;SDS011;19224;52.462;16.898;2022-11-23T05:29:00;75.90;;;34.35;;
32872;SDS011;19224;52.462;16.898;2022-11-23T05:31:30;81.00;;;35.83;;
32872;SDS011;19224;52.462;16.898;2022-11-23T05:34:01;78.52;;;34.48;;
32872;SDS011;19224;52.462;16.898;2022-11-23T05:36:32;79.97;;;34.65;;
32872;SDS011;19224;52.462;16.898;2022-11-23T05:39:02;74.95;;;33.75;;
32872;SDS011;19224;52.462;16.898;2022-11-23T05:41:33;76.37;;;33.53;;
32872;SDS011;19224;52.462;16.898;2022-11-23T05:44:03;74.75;;;33.73;;
32872;SDS011;19224;52.462;16.898;2022-11-23T05:46:34;76.62;;;33.83;;
32872;SDS011;19224;52.462;16.898;2022-11-23T05:49:04;79.47;;;34.10;;
32872;SDS011;19224;52.462;16.898;2022-11-23T05:51:34;79.35;;;34.53;;
32872;SDS011;19224;52.462;16.898;2022-11-23T05:54:04;79.30;;;35.05;;
32872;SDS011;19224;52.462;16.898;2022-11-23T05:56:35;80.40;;;35.25;;
32872;SDS011;19224;52.462;16.898;2022-11-23T05:59:05;82.65;;;35.03;;
32872;SDS011;19224;52.462;16.898;2022-11-23T06:01:35;81.60;;;34.98;;
32872;SDS011;19224;52.462;16.898;2022-11-23T06:04:06;80.30;;;34.08;;
32872;SDS011;19224;52.462;16.898;2022-11-23T06:06:36;81.95;;;35.17;;
32872;SDS011;19224;52.462;16.898;2022-11-23T06:09:07;79.60;;;33.88;;
32872;SDS011;19224;52.462;16.898;2022-11-23T06:11:38;76.07;;;33.55;;
32872;SDS011;19224;52.462;16.898;2022-11-23T06:14:09;72.25;;;32.33;;
32872;SDS011;19224;52.462;16.898;2022-11-23T06:16:39;74.70;;;33.13;;
32872;SDS011;19224;52.462;16.898;2022-11-23T06:19:10;74.90;;;31.95;;
32872;SDS011;19224;52.462;16.898;2022-11-23T06:21:40;70.70;;;30.95;;
32872;SDS011;19224;52.462;16.898;2022-11-23T06:24:10;74.15;;;32.25;;
32872;SDS011;19224;52.462;16.898;2022-11-23T06:26:40;72.25;;;31.93;;
32872;SDS011;19224;52.462;16.898;2022-11-23T06:29:11;68.33;;;32.00;;
32872;SDS011;19224;52.462;16.898;2022-11-23T06:31:41;69.37;;;31.60;;
32872;SDS011;19224;52.462;16.898;2022-11-23T06:34:12;79.12;;;33.55;;
32872;SDS011;19224;52.462;16.898;2022-11-23T06:36:43;68.72;;;32.13;;
32872;SDS011;19224;52.462;16.898;2022-11-23T06:39:13;73.15;;;32.63;;
32872;SDS011;19224;52.462;16.898;2022-11-23T06:41:44;76.70;;;33.60;;
32872;SDS011;19224;52.462;16.898;2022-11-23T06:44:14;71.57;;;32.30;;
32872;SDS011;19224;52.462;16.898;2022-11-23T06:46:44;74.50;;;31.55;;
32872;SDS011;19224;52.462;16.898;2022-11-23T06:49:15;68.25;;;31.52;;
32872;SDS011;19224;52.462;16.898;2022-11-23T06:51:47;69.30;;;31.75;;
32872;SDS011;19224;52.462;16.898;2022-11-23T06:54:17;64.80;;;30.08;;
32872;SDS011;19224;52.462;16.898;2022-11-23T06:56:47;70.52;;;32.23;;
32872;SDS011;19224;52.462;16.898;2022-11-23T06:59:17;66.77;;;32.08;;
32872;SDS011;19224;52.462;16.898;2022-11-23T07:01:48;61.42;;;29.70;;
32872;SDS011;19224;52.462;16.898;2022-11-23T07:04:19;68.67;;;31.48;;
32872;SDS011;19224;52.462;16.898;2022-11-23T07:06:49;68.42;;;28.73;;
32872;SDS011;19224;52.462;16.898;2022-11-23T07:09:19;66.80;;;30.20;;
32872;SDS011;19224;52.462;16.898;2022-11-23T07:11:50;68.02;;;31.45;;
32872;SDS011;19224;52.462;16.898;2022-11-23T07:14:20;65.55;;;30.57;;
32872;SDS011;19224;52.462;16.898;2022-11-23T07:16:50;70.42;;;30.92;;
32872;SDS011;19224;52.462;16.898;2022-11-23T07:19:21;72.03;;;31.80;;
32872;SDS011;19224;52.462;16.898;2022-11-23T07:21:51;70.55;;;32.30;;
32872;SDS011;19224;52.462;16.898;2022-11-23T07:24:21;63.90;;;29.95;;
32872;SDS011;19224;52.462;16.898;2022-11-23T07:26:51;71.53;;;31.55;;
32872;SDS011;19224;52.462;16.898;2022-11-23T07:29:22;68.60;;;30.70;;
32872;SDS011;19224;52.462;16.898;2022-11-23T07:31:52;72.85;;;31.42;;
32872;SDS011;19224;52.462;16.898;2022-11-23T07:34:22;68.02;;;31.23;;
32872;SDS011;19224;52.462;16.898;2022-11-23T07:36:53;68.90;;;30.95;;
32872;SDS011;19224;52.462;16.898;2022-11-23T07:39:23;71.40;;;33.02;;
32872;SDS011;19224;52.462;16.898;2022-11-23T07:41:53;74.40;;;31.77;;
32872;SDS011;19224;52.462;16.898;2022-11-23T07:44:24;72.95;;;31.70;;
32872;SDS011;19224;52.462;16.898;2022-11-23T07:46:54;74.67;;;31.82;;
32872;SDS011;19224;52.462;16.898;2022-11-23T07:49:24;70.37;;;31.55;;
32872;SDS011;19224;52.462;16.898;2022-11-23T07:51:54;74.75;;;34.33;;
32872;SDS011;19224;52.462;16.898;2022-11-23T07:54:24;73.50;;;32.20;;
32872;SDS011;19224;52.462;16.898;2022-11-23T07:56:55;73.37;;;33.42;;
32872;SDS011;19224;52.462;16.898;2022-11-23T07:59:25;72.15;;;32.17;;
32872;SDS011;19224;52.462;16.898;2022-11-23T08:01:56;73.55;;;33.18;;
32872;SDS011;19224;52.462;16.898;2022-11-23T08:04:26;77.70;;;33.15;;
32872;SDS011;19224;52.462;16.898;2022-11-23T08:06:56;77.72;;;33.18;;
32872;SDS011;19224;52.462;16.898;2022-11-23T08:09:29;71.53;;;32.35;;
32872;SDS011;19224;52.462;16.898;2022-11-23T08:11:59;77.42;;;33.83;;
32872;SDS011;19224;52.462;16.898;2022-11-23T08:14:30;77.20;;;34.05;;
32872;SDS011;19224;52.462;16.898;2022-11-23T08:17:00;74.65;;;33.63;;
32872;SDS011;19224;52.462;16.898;2022-11-23T08:19:31;76.22;;;32.88;;
32872;SDS011;19224;52.462;16.898;2022-11-23T08:22:02;83.07;;;35.20;;
32872;SDS011;19224;52.462;16.898;2022-11-23T08:24:32;79.42;;;35.23;;
32872;SDS011;19224;52.462;16.898;2022-11-23T08:27:02;81.02;;;33.58;;
32872;SDS011;19224;52.462;16.898;2022-11-23T08:29:33;75.97;;;34.30;;
32872;SDS011;19224;52.462;16.898;2022-11-23T08:32:03;75.83;;;34.73;;
32872;SDS011;19224;52.462;16.898;2022-11-23T08:34:34;79.75;;;34.80;;
32872;SDS011;19224;52.462;16.898;2022-11-23T08:37:04;76.00;;;35.25;;
32872;SDS011;19224;52.462;16.898;2022-11-23T08:39:35;79.20;;;34.75;;
32872;SDS011;19224;52.462;16.898;2022-11-23T08:42:05;80.55;;;33.95;;
32872;SDS011;19224;52.462;16.898;2022-11-23T08:44:35;73.97;;;33.00;;
32872;SDS011;19224;52.462;16.898;2022-11-23T08:47:06;79.62;;;34.73;;
32872;SDS011;19224;52.462;16.898;2022-11-23T08:49:39;74.27;;;33.78;;
32872;SDS011;19224;52.462;16.898;2022-11-23T08:52:09;77.47;;;34.13;;
32872;SDS011;19224;52.462;16.898;2022-11-23T08:54:40;79.40;;;34.95;;
32872;SDS011;19224;52.462;16.898;2022-11-23T08:57:10;74.27;;;33.92;;
32872;SDS011;19224;52.462;16.898;2022-11-23T08:59:40;75.30;;;34.10;;
32872;SDS011;19224;52.462;16.898;2022-11-23T09:02:13;76.15;;;34.80;;
32872;SDS011;19224;52.462;16.898;2022-11-23T09:04:44;75.80;;;34.80;;
32872;SDS011;19224;52.462;16.898;2022-11-23T09:07:15;77.03;;;34.75;;
32872;SDS011;19224;52.462;16.898;2022-11-23T09:09:45;81.30;;;32.95;;
32872;SDS011;19224;52.462;16.898;2022-11-23T09:12:15;81.32;;;35.03;;
32872;SDS011;19224;52.462;16.898;2022-11-23T09:14:45;73.97;;;34.00;;
32872;SDS011;19224;52.462;16.898;2022-11-23T09:17:16;72.85;;;33.23;;
32872;SDS011;19224;52.462;16.898;2022-11-23T09:19:47;75.00;;;33.20;;
32872;SDS011;19224;52.462;16.898;2022-11-23T09:22:18;72.00;;;32.93;;
32872;SDS011;19224;52.462;16.898;2022-11-23T09:24:48;72.40;;;32.60;;
32872;SDS011;19224;52.462;16.898;2022-11-23T09:27:19;75.95;;;32.88;;
32872;SDS011;19224;52.462;16.898;2022-11-23T09:29:49;72.60;;;32.90;;
32872;SDS011;19224;52.462;16.898;2022-11-23T09:32:19;72.95;;;33.35;;
32872;SDS011;19224;52.462;16.898;2022-11-23T09:34:50;70.15;;;32.93;;
32872;SDS011;19224;52.462;16.898;2022-11-23T09:37:20;73.47;;;33.02;;
32872;SDS011;19224;52.462;16.898;2022-11-23T09:39:51;77.82;;;34.23;;
32872;SDS011;19224;52.462;16.898;2022-11-23T09:51:14;72.00;;;33.15;;
32872;SDS011;19224;52.462;16.898;2022-11-23T09:54:01;72.67;;;34.15;;
32872;SDS011;19224;52.462;16.898;2022-11-23T09:56:34;77.10;;;34.20;;
32872;SDS011;19224;52.462;16.898;2022-11-23T09:59:17;77.53;;;34.63;;
32872;SDS011;19224;52.462;16.898;2022-11-23T10:02:09;71.87;;;32.15;;
32872;SDS011;19224;52.462;16.898;2022-11-23T10:04:41;76.82;;;33.28;;
32872;SDS011;19224;52.462;16.898;2022-11-23T10:07:30;70.87;;;32.08;;
32872;SDS011;19224;52.462;16.898;2022-11-23T10:10:33;69.42;;;32.03;;
32872;SDS011;19224;52.462;16.898;2022-11-23T10:19:02;70.25;;;32.95;;
32872;SDS011;19224;52.462;16.898;2022-11-23T10:21:51;74.35;;;33.42;;
32872;SDS011;19224;52.462;16.898;2022-11-23T10:24:38;72.72;;;32.78;;
32872;SDS011;19224;52.462;16.898;2022-11-23T10:27:13;71.95;;;32.58;;
32872;SDS011;19224;52.462;16.898;2022-11-23T10:29:49;74.25;;;33.00;;
32872;SDS011;19224;52.462;16.898;2022-11-23T10:38:11;73.02;;;33.02;;
32872;SDS011;19224;52.462;16.898;2022-11-23T10:43:47;75.97;;;33.88;;
32872;SDS011;19224;52.462;16.898;2022-11-23T10:49:15;74.50;;;31.55;;
32872;SDS011;19224;52.462;16.898;2022-11-23T10:51:56;75.40;;;32.83;;
32872;SDS011;19224;52.462;16.898;2022-11-23T10:57:41;84.25;;;34.55;;
32872;SDS011;19224;52.462;16.898;2022-11-23T11:00:15;73.70;;;34.13;;
32872;SDS011;19224;52.462;16.898;2022-11-23T11:02:49;83.27;;;36.83;;
32872;SDS011;19224;52.462;16.898;2022-11-23T11:05:28;79.42;;;33.73;;
32872;SDS011;19224;52.462;16.898;2022-11-23T11:08:48;78.05;;;34.43;;
32872;SDS011;19224;52.462;16.898;2022-11-23T11:10:48;75.60;;;33.85;;
32872;SDS011;19224;52.462;16.898;2022-11-23T11:13:31;73.60;;;33.33;;
32872;SDS011;19224;52.462;16.898;2022-11-23T11:16:21;71.53;;;32.05;;
32872;SDS011;19224;52.462;16.898;2022-11-23T11:22:00;79.30;;;34.78;;
32872;SDS011;19224;52.462;16.898;2022-11-23T11:24:44;76.80;;;34.48;;
32872;SDS011;19224;52.462;16.898;2022-11-23T11:27:19;77.78;;;34.70;;
32872;SDS011;19224;52.462;16.898;2022-11-23T11:30:03;75.52;;;33.33;;
32872;SDS011;19224;52.462;16.898;2022-11-23T11:32:48;80.55;;;35.80;;
32872;SDS011;19224;52.462;16.898;2022-11-23T11:35:38;79.05;;;34.70;;
32872;SDS011;19224;52.462;16.898;2022-11-23T11:38:15;76.35;;;34.25;;
32872;SDS011;19224;52.462;16.898;2022-11-23T11:40:49;76.60;;;35.63;;
32872;SDS011;19224;52.462;16.898;2022-11-23T11:43:31;81.72;;;36.35;;
32872;SDS011;19224;52.462;16.898;2022-11-23T11:46:08;81.92;;;36.75;;
32872;SDS011;19224;52.462;16.898;2022-11-23T11:48:48;84.65;;;36.98;;
32872;SDS011;19224;52.462;16.898;2022-11-23T11:51:21;79.30;;;36.10;;
32872;SDS011;19224;52.462;16.898;2022-11-23T11:56:56;84.13;;;37.73;;
32872;SDS011;19224;52.462;16.898;2022-11-23T11:59:36;78.95;;;35.52;;
32872;SDS011;19224;52.462;16.898;2022-11-23T12:02:17;77.15;;;37.23;;
32872;SDS011;19224;52.462;16.898;2022-11-23T12:04:59;86.55;;;38.78;;
32872;SDS011;19224;52.462;16.898;2022-11-23T12:10:46;80.05;;;37.33;;
32872;SDS011;19224;52.462;16.898;2022-11-23T12:13:19;80.17;;;37.25;;
32872;SDS011;19224;52.462;16.898;2022-11-23T12:15:58;83.60;;;38.35;;
32872;SDS011;19224;52.462;16.898;2022-11-23T12:27:38;76.35;;;36.23;;
32872;SDS011;19224;52.462;16.898;2022-11-23T12:30:19;86.87;;;38.85;;
32872;SDS011;19224;52.462;16.898;2022-11-23T12:35:52;82.37;;;38.20;;
32872;SDS011;19224;52.462;16.898;2022-11-23T12:41:30;92.05;;;42.10;;
32872;SDS011;19224;52.462;16.898;2022-11-23T12:44:18;95.45;;;43.05;;
32872;SDS011;19224;52.462;16.898;2022-11-23T12:59:30;79.72;;;35.98;;
32872;SDS011;19224;52.462;16.898;2022-11-23T13:02:12;75.80;;;36.83;;
32872;SDS011;19224;52.462;16.898;2022-11-23T13:05:41;83.58;;;37.45;;
32872;SDS011;19224;52.462;16.898;2022-11-23T13:11:34;88.30;;;37.80;;
32872;SDS011;19224;52.462;16.898;2022-11-23T13:14:38;80.50;;;37.50;;
32872;SDS011;19224;52.462;16.898;2022-11-23T13:17:18;82.10;;;37.40;;
32872;SDS011;19224;52.462;16.898;2022-11-23T13:22:42;78.52;;;37.10;;
32872;SDS011;19224;52.462;16.898;2022-11-23T13:25:18;77.08;;;36.20;;
32872;SDS011;19224;52.462;16.898;2022-11-23T13:35:57;81.87;;;35.68;;
32872;SDS011;19224;52.462;16.898;2022-11-23T13:38:34;79.25;;;35.78;;
32872;SDS011;19224;52.462;16.898;2022-11-23T13:44:29;70.12;;;34.83;;
32872;SDS011;19224;52.462;16.898;2022-11-23T13:46:59;74.87;;;35.05;;
32872;SDS011;19224;52.462;16.898;2022-11-23T13:49:44;74.32;;;35.08;;
32872;SDS011;19224;52.462;16.898;2022-11-23T13:55:08;69.35;;;33.83;;
32872;SDS011;19224;52.462;16.898;2022-11-23T13:57:43;76.07;;;35.73;;
32872;SDS011;19224;52.462;16.898;2022-11-23T14:10:05;76.90;;;35.33;;
32872;SDS011;19224;52.462;16.898;2022-11-23T14:12:21;77.62;;;36.13;;
32872;SDS011;19224;52.462;16.898;2022-11-23T14:15:21;77.40;;;35.00;;
32872;SDS011;19224;52.462;16.898;2022-11-23T14:24:01;81.10;;;37.20;;
32872;SDS011;19224;52.462;16.898;2022-11-23T14:30:57;78.92;;;36.85;;
32872;SDS011;19224;52.462;16.898;2022-11-23T14:32:49;87.97;;;39.25;;
32872;SDS011;19224;52.462;16.898;2022-11-23T14:35:29;88.20;;;38.17;;
32872;SDS011;19224;52.462;16.898;2022-11-23T14:41:27;84.05;;;37.65;;
32872;SDS011;19224;52.462;16.898;2022-11-23T14:44:02;84.28;;;36.58;;
32872;SDS011;19224;52.462;16.898;2022-11-23T14:46:35;85.22;;;37.65;;
32872;SDS011;19224;52.462;16.898;2022-11-23T14:49:11;87.35;;;36.77;;
32872;SDS011;19224;52.462;16.898;2022-11-23T14:51:42;83.62;;;37.03;;
32872;SDS011;19224;52.462;16.898;2022-11-23T14:54:13;78.55;;;35.43;;
32872;SDS011;19224;52.462;16.898;2022-11-23T14:56:45;88.40;;;41.77;;
32872;SDS011;19224;52.462;16.898;2022-11-23T14:59:25;84.95;;;37.60;;
32872;SDS011;19224;52.462;16.898;2022-11-23T15:02:00;93.30;;;40.95;;
32872;SDS011;19224;52.462;16.898;2022-11-23T15:05:03;79.90;;;37.45;;
32872;SDS011;19224;52.462;16.898;2022-11-23T15:10:37;81.28;;;34.80;;
32872;SDS011;19224;52.462;16.898;2022-11-23T15:13:29;74.17;;;33.60;;
32872;SDS011;19224;52.462;16.898;2022-11-23T15:16:02;72.90;;;34.60;;
32872;SDS011;19224;52.462;16.898;2022-11-23T15:18:34;93.22;;;44.83;;
32872;SDS011;19224;52.462;16.898;2022-11-23T15:21:10;77.37;;;34.08;;
32872;SDS011;19224;52.462;16.898;2022-11-23T15:23:49;71.62;;;33.65;;
32872;SDS011;19224;52.462;16.898;2022-11-23T15:26:25;71.95;;;33.67;;
32872;SDS011;19224;52.462;16.898;2022-11-23T15:28:58;83.60;;;36.83;;
32872;SDS011;19224;52.462;16.898;2022-11-23T15:31:33;71.35;;;34.80;;
32872;SDS011;19224;52.462;16.898;2022-11-23T15:34:13;75.35;;;35.60;;
32872;SDS011;19224;52.462;16.898;2022-11-23T15:36:45;73.83;;;35.43;;
32872;SDS011;19224;52.462;16.898;2022-11-23T15:39:20;74.10;;;35.60;;
32872;SDS011;19224;52.462;16.898;2022-11-23T15:41:52;71.37;;;35.00;;
32872;SDS011;19224;52.462;16.898;2022-11-23T15:44:28;74.60;;;35.95;;
32872;SDS011;19224;52.462;16.898;2022-11-23T15:47:03;74.58;;;37.45;;
32872;SDS011;19224;52.462;16.898;2022-11-23T15:49:36;74.60;;;36.38;;
32872;SDS011;19224;52.462;16.898;2022-11-23T15:52:13;72.00;;;35.45;;
32872;SDS011;19224;52.462;16.898;2022-11-23T15:54:42;75.35;;;36.05;;
32872;SDS011;19224;52.462;16.898;2022-11-23T15:57:18;83.40;;;36.73;;
32872;SDS011;19224;52.462;16.898;2022-11-23T15:59:49;83.82;;;39.03;;
32872;SDS011;19224;52.462;16.898;2022-11-23T16:02:29;83.85;;;38.98;;
32872;SDS011;19224;52.462;16.898;2022-11-23T16:05:13;80.95;;;39.88;;
32872;SDS011;19224;52.462;16.898;2022-11-23T16:07:52;87.75;;;41.10;;
32872;SDS011;19224;52.462;16.898;2022-11-23T16:10:26;86.25;;;39.70;;
32872;SDS011;19224;52.462;16.898;2022-11-23T16:13:00;80.83;;;39.40;;
32872;SDS011;19224;52.462;16.898;2022-11-23T16:18:31;80.53;;;38.08;;
32872;SDS011;19224;52.462;16.898;2022-11-23T16:23:46;77.35;;;38.83;;
32872;SDS011;19224;52.462;16.898;2022-11-23T16:26:30;84.10;;;38.85;;
32872;SDS011;19224;52.462;16.898;2022-11-23T16:29:02;78.50;;;36.98;;
32872;SDS011;19224;52.462;16.898;2022-11-23T16:31:36;78.72;;;37.60;;
32872;SDS011;19224;52.462;16.898;2022-11-23T16:34:15;77.45;;;37.38;;
32872;SDS011;19224;52.462;16.898;2022-11-23T16:36:45;78.97;;;37.53;;
32872;SDS011;19224;52.462;16.898;2022-11-23T16:39:16;79.35;;;38.60;;
32872;SDS011;19224;52.462;16.898;2022-11-23T16:41:46;80.35;;;39.13;;
32872;SDS011;19224;52.462;16.898;2022-11-23T16:44:17;85.32;;;39.25;;
32872;SDS011;19224;52.462;16.898;2022-11-23T16:46:48;78.45;;;38.80;;